createdAt,value
2022-11-24T00:02:08.452Z,99270.63
2022-11-24T00:07:30.695Z,99261.19
2022-11-24T00:12:52.237Z,99286.84
2022-11-24T00:18:13.633Z,99285.22
2022-11-24T00:23:35.708Z,99291.13
2022-11-24T00:28:59.683Z,99297.91
2022-11-24T00:34:21.716Z,99297.06
2022-11-24T00:39:43.083Z,99321.84
2022-11-24T00:45:13.615Z,99330.53
2022-11-24T00:50:36.027Z,99360.53
2022-11-24T00:55:57.368Z,99364.69
2022-11-24T01:01:23.110Z,99370.66
2022-11-24T01:06:44.693Z,99386.94
2022-11-24T01:12:06.318Z,99394.63
2022-11-24T01:17:27.846Z,99392.19
2022-11-24T01:22:50.103Z,99378.50
2022-11-24T01:28:12.052Z,99380.16
2022-11-24T01:33:35.700Z,99364.81
2022-11-24T01:38:57.286Z,99355.38
2022-11-24T01:44:23.700Z,99363.13
2022-11-24T01:49:55.964Z,99356.28
2022-11-24T01:55:23.142Z,99356.97
2022-11-24T02:00:45.898Z,99365.50
2022-11-24T02:06:14.275Z,99351.78
2022-11-24T02:11:38.937Z,99352.78
2022-11-24T02:17:00.619Z,99358.72
2022-11-24T02:22:28.231Z,99354.41
2022-11-24T02:27:53.811Z,99368.16
2022-11-24T02:33:15.981Z,99370.81
2022-11-24T02:38:38.517Z,99386.19
2022-11-24T02:44:02.616Z,99394.63
2022-11-24T02:49:24.629Z,99386.84
2022-11-24T02:54:46.162Z,99401.41
2022-11-24T03:00:08.543Z,99403.16
2022-11-24T03:05:29.727Z,99395.63
2022-11-24T03:10:51.029Z,99376.88
2022-11-24T03:16:12.369Z,99379.47
2022-11-24T03:21:35.998Z,99383.78
2022-11-24T03:26:57.278Z,99382.09
2022-11-24T03:32:18.584Z,99387.16
2022-11-24T03:37:39.860Z,99392.19
2022-11-24T03:43:01.312Z,99381.06
2022-11-24T03:48:22.930Z,99390.50
2022-11-24T03:53:45.211Z,99389.78
2022-11-24T03:59:06.799Z,99388.97
2022-11-24T04:04:28.328Z,99409.59
2022-11-24T04:09:49.553Z,99393.44
2022-11-24T04:15:12.995Z,99387.31
2022-11-24T04:20:35.030Z,99393.28
2022-11-24T04:25:57.167Z,99399.38
2022-11-24T04:31:18.618Z,99395.19
2022-11-24T04:36:41.134Z,99400.38
2022-11-24T04:42:04.493Z,99420.06
2022-11-24T04:47:27.005Z,99414.00
2022-11-24T04:52:49.822Z,99419.03
2022-11-24T04:58:11.744Z,99424.19
2022-11-24T05:03:33.023Z,99429.31
2022-11-24T05:08:54.728Z,99432.69
2022-11-24T05:14:16.559Z,99430.22
2022-11-24T05:19:37.932Z,99450.00
2022-11-24T05:25:00.903Z,99431.22
2022-11-24T05:30:23.009Z,99452.66
2022-11-24T05:35:48.577Z,99480.94
2022-11-24T05:41:10.040Z,99491.91
2022-11-24T05:46:31.870Z,99520.97
2022-11-24T05:51:53.477Z,99511.50
2022-11-24T05:57:16.579Z,99513.19
2022-11-24T06:02:38.502Z,99527.63
2022-11-24T06:08:00.948Z,99520.78
2022-11-24T06:13:22.514Z,99535.38
2022-11-24T06:18:44.138Z,99538.06
2022-11-24T06:24:07.073Z,99527.78
2022-11-24T06:29:28.673Z,99521.78
2022-11-24T06:34:50.229Z,99508.13
2022-11-24T06:40:13.095Z,99511.56
2022-11-24T06:45:34.584Z,99514.31
2022-11-24T06:51:00.575Z,99517.78
2022-11-24T06:56:22.430Z,99515.38
2022-11-24T07:01:43.848Z,99525.72
2022-11-24T07:07:05.566Z,99518.22
2022-11-24T07:12:27.289Z,99516.56
2022-11-24T07:17:49.042Z,99536.28
2022-11-24T07:23:10.519Z,99543.09
2022-11-24T07:28:32.362Z,99548.06
2022-11-24T07:33:55.017Z,99537.06
2022-11-24T07:39:16.398Z,99541.38
2022-11-24T07:44:38.124Z,99550.97
2022-11-24T07:50:00.643Z,99548.47
2022-11-24T07:55:22.211Z,99536.47
2022-11-24T08:00:43.727Z,99546.59
2022-11-24T08:06:23.584Z,99543.00
2022-11-24T08:11:47.146Z,99547.34
2022-11-24T08:17:08.813Z,99562.91
2022-11-24T08:22:30.710Z,99555.94
2022-11-24T08:27:52.111Z,99569.72
2022-11-24T08:33:13.434Z,99573.97
2022-11-24T08:38:35.263Z,99560.22
2022-11-24T08:43:57.030Z,99565.34
2022-11-24T08:49:19.623Z,99567.00
2022-11-24T08:54:41.201Z,99567.91
2022-11-24T09:00:06.076Z,99563.69
2022-11-24T09:05:51.217Z,99578.34
2022-11-24T09:11:13.806Z,99581.84
2022-11-24T09:16:35.494Z,99580.22
2022-11-24T09:21:57.245Z,99566.56
2022-11-24T09:27:18.936Z,99573.47
2022-11-24T09:32:40.575Z,99573.44
2022-11-24T09:38:02.221Z,99582.84
2022-11-24T09:43:46.193Z,99571.75
2022-11-24T09:49:14.389Z,99569.09
2022-11-24T09:54:38.724Z,99572.50
2022-11-24T10:00:04.993Z,99566.59
2022-11-24T10:05:36.426Z,99565.69
2022-11-24T10:11:01.690Z,99544.25
2022-11-24T10:16:40.557Z,99527.84
2022-11-24T10:22:34.982Z,99550.16
2022-11-24T10:28:02.261Z,99550.22
2022-11-24T10:33:30.370Z,99531.38
2022-11-24T10:39:03.185Z,99552.88
2022-11-24T10:44:24.995Z,99546.88
2022-11-24T10:50:15.406Z,99551.16
2022-11-24T10:56:05.784Z,99552.03
2022-11-24T11:01:33.871Z,99560.63
2022-11-24T11:07:10.223Z,99567.44
2022-11-24T11:12:47.379Z,99563.09
2022-11-24T11:18:16.966Z,99561.28
2022-11-24T11:23:41.083Z,99564.56
2022-11-24T11:34:58.179Z,99571.56
2022-11-24T11:40:28.625Z,99582.72
2022-11-24T11:46:01.721Z,99577.59
2022-11-24T11:51:45.112Z,99567.41
2022-11-24T11:57:55.891Z,99578.59
2022-11-24T12:03:49.251Z,99572.56
2022-11-24T12:09:34.072Z,99589.69
2022-11-24T12:15:23.410Z,99583.66
2022-11-24T12:21:23.064Z,99578.47
2022-11-24T12:27:03.687Z,99560.44
2022-11-24T12:32:49.660Z,99568.00
2022-11-24T12:38:29.776Z,99577.53
2022-11-24T12:43:53.608Z,99577.56
2022-11-24T12:49:50.639Z,99593.81
2022-11-24T12:55:20.024Z,99607.53
2022-11-24T13:01:16.528Z,99610.09
2022-11-24T13:07:12.798Z,99602.38
2022-11-24T13:12:36.579Z,99605.78
2022-11-24T13:18:08.551Z,99613.47
2022-11-24T13:23:34.055Z,99622.06
2022-11-24T13:29:18.325Z,99607.47
2022-11-24T13:34:47.209Z,99599.72
2022-11-24T13:40:13.492Z,99586.81
2022-11-24T13:45:51.402Z,99591.63
2022-11-24T13:51:24.700Z,99609.75
2022-11-24T13:56:47.251Z,99608.97
2022-11-24T14:02:23.802Z,99598.69
2022-11-24T14:07:49.340Z,99603.00
2022-11-24T14:13:23.510Z,99613.34
2022-11-24T14:18:47.784Z,99615.13
2022-11-24T14:24:12.646Z,99627.13
2022-11-24T14:29:35.023Z,99625.41
2022-11-24T14:34:57.281Z,99610.81
2022-11-24T14:40:54.847Z,99620.88
2022-11-24T14:46:21.342Z,99615.53
2022-11-24T14:51:46.101Z,99624.59
2022-11-24T14:57:23.151Z,99640.38
2022-11-24T15:02:58.394Z,99632.03
2022-11-24T15:08:20.079Z,99632.63
2022-11-24T15:13:57.253Z,99628.22
2022-11-24T15:19:20.335Z,99635.94
2022-11-24T15:24:54.618Z,99641.22
2022-11-24T15:30:15.925Z,99645.00
2022-11-24T15:35:37.808Z,99640.75
2022-11-24T15:41:01.557Z,99634.69
2022-11-24T15:46:24.460Z,99650.13
2022-11-24T15:51:48.379Z,99663.13
2022-11-24T15:57:11.354Z,99668.25
2022-11-24T16:02:33.809Z,99672.53
2022-11-24T16:07:55.655Z,99687.13
2022-11-24T16:13:17.333Z,99692.25
2022-11-24T16:18:40.356Z,99697.47
2022-11-24T16:24:02.035Z,99708.63
2022-11-24T16:29:24.545Z,99707.78
2022-11-24T16:34:46.208Z,99719.75
2022-11-24T16:40:08.491Z,99724.78
2022-11-24T16:45:30.108Z,99728.19
2022-11-24T16:50:54.254Z,99725.56
2022-11-24T16:56:17.701Z,99729.81
2022-11-24T17:01:40.737Z,99737.50
2022-11-24T17:07:04.232Z,99728.88
2022-11-24T17:12:26.236Z,99722.81
2022-11-24T17:18:16.239Z,99724.53
2022-11-24T17:23:29.375Z,99736.56
2022-11-24T17:28:51.863Z,99720.22
2022-11-24T17:34:13.520Z,99717.56
2022-11-24T17:39:35.059Z,99709.03
2022-11-24T17:44:56.847Z,99703.06
2022-11-24T17:50:25.432Z,99701.41
2022-11-24T17:55:48.817Z,99701.44
2022-11-24T18:01:11.498Z,99684.34
2022-11-24T18:06:34.414Z,99691.22
2022-11-24T18:11:57.204Z,99698.94
2022-11-24T18:17:18.988Z,99688.66
2022-11-24T18:23:04.640Z,99700.72
2022-11-24T18:28:24.007Z,99695.56
2022-11-24T18:33:45.729Z,99697.28
2022-11-24T18:39:09.231Z,99694.75
2022-11-24T18:44:30.685Z,99711.00
2022-11-24T18:49:53.198Z,99722.06
2022-11-24T18:55:15.476Z,99720.38
2022-11-24T19:00:37.703Z,99711.81
2022-11-24T19:06:07.509Z,99701.50
2022-11-24T19:11:34.287Z,99697.31
2022-11-24T19:16:57.113Z,99700.69
2022-11-24T19:22:18.790Z,99698.97
2022-11-24T19:27:40.629Z,99698.94
2022-11-24T19:33:03.554Z,99704.06
2022-11-24T19:38:29.694Z,99706.66
2022-11-24T19:43:53.698Z,99702.34
2022-11-24T19:49:16.696Z,99699.69
2022-11-24T19:54:38.421Z,99692.91
2022-11-24T20:00:00.031Z,99687.81
2022-11-24T20:05:21.773Z,99683.44
2022-11-24T20:10:43.528Z,99680.94
2022-11-24T20:16:13.641Z,99686.94
2022-11-24T20:21:37.375Z,99691.31
2022-11-24T20:27:00.210Z,99684.38
2022-11-24T20:32:21.550Z,99686.19
2022-11-24T20:37:44.369Z,99680.16
2022-11-24T20:43:05.865Z,99677.66
2022-11-24T20:48:27.531Z,99696.56
2022-11-24T20:53:53.345Z,99679.38
2022-11-24T20:59:18.040Z,99675.16
2022-11-24T21:04:39.335Z,99687.19
2022-11-24T21:10:01.612Z,99698.28
2022-11-24T21:15:23.896Z,99700.78
2022-11-24T21:21:35.856Z,99703.44
2022-11-24T21:26:58.598Z,99700.03
2022-11-24T21:32:20.803Z,99690.50
2022-11-24T21:37:42.026Z,99711.09
2022-11-24T21:43:03.839Z,99706.84
2022-11-24T21:48:25.859Z,99703.34
2022-11-24T21:53:47.924Z,99684.53
2022-11-24T21:59:10.244Z,99698.22
2022-11-24T22:04:32.557Z,99688.84
2022-11-24T22:09:54.017Z,99687.91
2022-11-24T22:15:15.818Z,99683.63
2022-11-24T22:20:37.723Z,99697.38
2022-11-24T22:26:12.630Z,99684.47
2022-11-24T22:31:34.320Z,99697.38
2022-11-24T22:36:55.516Z,99698.22
2022-11-24T22:42:16.718Z,99701.53
2022-11-24T22:47:38.402Z,99699.88
2022-11-24T22:52:59.899Z,99700.72
2022-11-24T22:58:21.429Z,99699.88
2022-11-24T23:03:44.325Z,99705.09
2022-11-24T23:09:06.300Z,99700.84
2022-11-24T23:14:29.070Z,99701.63
2022-11-24T23:19:50.661Z,99705.09
2022-11-24T23:25:12.633Z,99705.91
2022-11-24T23:30:34.006Z,99708.41
2022-11-24T23:35:55.380Z,99716.97
2022-11-24T23:41:26.705Z,99717.78
2022-11-24T23:46:48.465Z,99718.78
2022-11-24T23:52:09.894Z,99716.97
2022-11-24T23:57:31.931Z,99714.31
